Zanesville Municipal Airport
KZZV : now visible

Airfield :











YOU CAN JOIN US ON...

 
LOGIN :

Register | Disclaimer

   EN    FR    IT 

 









Legend :    VFR   Marginal VFR   IFR   Intensive IFR   Very Intensive IFR
Visi :
Ceiling :
>= 8 km
>= 3000ft
5 to 8 km
1000 to 3000 ft
1500m to 5 km
500 to 1000 ft
800 to 1500m
200 to 500 ft
< 800m
< 200 ft
Symbols :   Thunderstorms  Fog  Heavy snow  Heavy precipitations  Wind > 20 kt






- Airport Elevation : 900 ft


KZZV - Zanesville Municipal

CURRENT METAR :
  • 011353Z AUTO 36006KT 10SM OVC008 07/04 A2992 RMK AO2 SLP134 T00670044

EXPIRED METARs :
  • 011253Z AUTO 34005KT 9SM OVC008 06/04 A2990 RMK AO2 SLP128 T00610044
  • 011200Z AUTO 34005KT 10SM BKN008 OVC014 06/04 A2988 RMK AO2 T00560039
  • 011140Z AUTO 35005KT 10SM SCT008 OVC014 06/04 A2987 RMK AO2 T00560039

TAF KZZV
Valid from the 01 at 12:00 until the 02 at 12:00 UTC


011122Z 0112/0212 36005KT P6SM OVC015
TEMPO 0112/0114 OVC009
FM012000 34009KT P6SM OVC035
FM020300 34005KT P6SM SCT100



MET'MAP, your aeronautical weather chart ! - Copyright ORBIFLY December 2007 - Disclaimer

ORBIFLY MET'MAP TEAM :

Programming & Development : Alexandra Zaïnal
Concept & original design : Baudouin d'Aumeries
Assistance for programming : Marc-Olivier Méhu
Technical & hardware support : Manuel Goepfert

Contact : metmap@orbifly.com




SOURCES & CREDITS :

   NOAA       Earth
Advisory